createdAt,value
2023-01-09T00:11:17.740Z,99.60
2023-01-09T00:26:11.995Z,99.17
2023-01-09T00:41:08.276Z,99.21
2023-01-09T00:56:02.555Z,98.98
2023-01-09T01:10:53.632Z,96.50
2023-01-09T01:25:44.851Z,95.52
2023-01-09T01:40:35.227Z,93.81
2023-01-09T01:55:26.030Z,93.39
2023-01-09T02:10:15.428Z,93.47
2023-01-09T02:25:16.915Z,93.29
2023-01-09T02:40:21.733Z,94.77
2023-01-09T02:55:40.324Z,96.78
2023-01-09T03:26:04.014Z,92.05
2023-01-09T03:40:51.728Z,92.44
2023-01-09T03:55:47.720Z,92.26
2023-01-09T04:10:42.136Z,90.76
2023-01-09T04:25:33.173Z,90.52
2023-01-09T04:40:23.127Z,90.62
2023-01-09T04:55:13.774Z,90.04
2023-01-09T05:10:04.482Z,87.17
2023-01-09T05:24:55.308Z,85.72
2023-01-09T05:39:45.039Z,84.08
2023-01-09T05:54:35.512Z,83.33
2023-01-09T06:09:25.323Z,82.76
2023-01-09T06:24:15.591Z,82.17
2023-01-09T06:39:06.611Z,80.14
2023-01-09T06:53:58.044Z,79.90
2023-01-09T07:08:49.064Z,77.47
2023-01-09T07:23:40.523Z,74.73
2023-01-09T07:38:32.232Z,74.52
2023-01-09T07:53:23.598Z,72.93
2023-01-09T08:08:13.509Z,72.98
2023-01-09T08:23:08.225Z,72.30
2023-01-09T08:37:57.139Z,71.62
2023-01-09T08:52:48.632Z,71.69
2023-01-09T09:07:40.690Z,70.87
2023-01-09T09:22:31.052Z,71.10
2023-01-09T09:37:21.392Z,69.86
2023-01-09T09:52:14.059Z,68.36
2023-01-09T10:07:08.536Z,68.14
2023-01-09T10:22:18.338Z,66.81
2023-01-09T10:37:18.424Z,65.95
2023-01-09T10:52:13.625Z,65.40
2023-01-09T11:07:03.619Z,64.69
2023-01-09T11:22:09.713Z,67.24
2023-01-09T11:37:09.608Z,78.03
2023-01-09T11:52:21.016Z,81.00
2023-01-09T12:07:42.039Z,80.02
2023-01-09T12:22:45.563Z,79.09
2023-01-09T12:38:00.980Z,81.56
2023-01-09T12:53:24.108Z,81.84
2023-01-09T13:08:29.525Z,79.69
2023-01-09T13:23:57.199Z,81.33
2023-01-09T13:53:41.271Z,78.98
2023-01-09T14:08:31.981Z,82.02
2023-01-09T14:23:49.851Z,83.06
2023-01-09T14:38:30.821Z,84.72
2023-01-09T14:53:31.643Z,85.56
2023-01-09T15:08:26.581Z,86.51
2023-01-09T15:23:22.447Z,87.48
2023-01-09T15:38:18.704Z,86.80
2023-01-09T15:53:15.281Z,86.57
2023-01-09T16:08:07.794Z,88.15
2023-01-09T16:23:01.324Z,88.26
2023-01-09T16:37:48.646Z,87.22
2023-01-09T16:52:38.869Z,88.17
2023-01-09T17:07:29.553Z,89.09
2023-01-09T17:22:19.579Z,90.96
2023-01-09T17:37:15.991Z,94.01
2023-01-09T17:52:10.534Z,94.55
2023-01-09T18:22:00.134Z,94.52
2023-01-09T18:36:51.339Z,94.60
2023-01-09T18:51:42.224Z,95.10
2023-01-09T19:06:31.817Z,94.64
2023-01-09T19:21:22.590Z,95.19
2023-01-09T19:36:13.021Z,96.33
2023-01-09T19:51:04.471Z,96.72
2023-01-09T20:05:54.489Z,96.82
2023-01-09T20:20:50.690Z,96.85
2023-01-09T20:35:45.604Z,96.03
2023-01-09T20:50:36.577Z,93.45
2023-01-09T21:05:27.942Z,92.75
2023-01-09T21:20:19.926Z,91.55
2023-01-09T21:35:10.838Z,91.75
2023-01-09T21:50:04.587Z,88.48
2023-01-09T22:04:53.542Z,86.48
2023-01-09T22:19:43.865Z,87.42
2023-01-09T22:34:34.123Z,88.88
2023-01-09T22:49:28.066Z,89.31
2023-01-09T23:04:16.417Z,89.56
2023-01-09T23:19:07.205Z,89.79
2023-01-09T23:33:58.182Z,90.73
2023-01-09T23:48:48.983Z,90.65
